• Join FlightAware (Why Join?)
  • Login
  • US Flag 
10:37AM EDT


 

Airport Tracker/Info


-or-


 

Live Flight TrackerFlight Track Log ✈ ASQ5738 ✈ 26-Apr-2013 ✈ KIAD - KCHS

Flight Track Log - Related Links

Times and Time Zones

All times are in EDT time to prevent confusion due to time zone crossing. See the ASQ5738 flight status page for this flight to view local times or setup timezone preferences in your user account.

Time Position Orientation Groundspeed Altitude Reporting Facility
EDT Latitude Longitude Course Direction KTS MPH feet Rate Location/Type
12:33PM 39.0000 -77.4500 171° South 207 238 3,700  Level Potomac TRACON
12:34PM 39.0667 -77.4667 349° North 222 255 7,200 2,700 Climbing Potomac TRACON
12:35PM 38.5635 -77.6369 123° Southeast  Level Estimated
12:35PM 39.1333 -77.4167 30° Northeast 253 291 9,400  Level Potomac TRACON
12:36PM 38.4675 -77.6809 123° Southeast  Level Estimated
12:36PM 39.1833 -77.3333 52° Northeast 341 392 10,200  Level Potomac TRACON
12:37PM 38.3715 -77.7247 123° Southeast  Level Estimated
12:37PM 39.1667 -77.2000 99° East 378 435 12,400  Level Potomac TRACON
12:38PM 38.2754 -77.7684 171° South  Level Estimated
12:38PM 39.1333 -77.0667 108° East 388 447 14,400  Level Potomac TRACON
12:39PM 39.0333 -77.0000 153° Southeast 374 430 16,200 1,680 Climbing Potomac TRACON
12:40PM 38.9333 -76.9500 159° South 394 453 17,900 1,380 Climbing Potomac TRACON
12:41PM 38.8500 -76.9000 155° Southeast 443 510 18,900 540 Climbing Potomac TRACON
12:42PM 38.7500 -76.8333 153° Southeast 425 489 19,000 60 Climbing Potomac TRACON
12:42PM 38.6758 -76.7989 160° South 442 509 19,000  Level Washington Center
12:43PM 38.5744 -76.7389 155° Southeast 459 528 19,000 540 Level Washington Center
12:44PM 38.4536 -76.7131 170° South 446 513 20,100 1,140 Climbing Washington Center
12:45PM 38.3328 -76.6981 174° South 441 507 21,300 1,380 Climbing Washington Center
12:46PM 38.2058 -76.6778 173° South 441 507 23,000 900 Climbing Washington Center
12:47PM 38.0831 -76.6628 175° South 436 502 23,200 300 Climbing Washington Center
12:48PM 37.9600 -76.6478 175° South 442 509 23,700 480 Climbing Washington Center
12:49PM 37.8347 -76.6619 185° South 442 509 24,200 480 Climbing Washington Center
12:50PM 37.7094 -76.6786 186° South 447 514 24,700 480 Climbing Washington Center
12:51PM 37.5842 -76.6925 185° South 453 521 25,200 480 Climbing Washington Center
12:52PM 37.4567 -76.7117 187° South 458 527 25,700 540 Climbing Washington Center
12:53PM 37.3353 -76.7567 196° South 458 527 26,300 480 Climbing Washington Center
12:54PM 37.2286 -76.8022 199° South 458 527 26,700 420 Climbing Washington Center
12:55PM 37.1069 -76.8525 198° South 458 527 27,200 480 Climbing Washington Center
12:56PM 36.9897 -76.9025 199° South 458 527 27,700 600 Climbing Washington Center
12:57PM 36.8806 -76.9656 205° Southwest 452 520 28,400 540 Climbing Washington Center
12:58PM 36.7794 -77.0492 214° Southwest 439 505 28,800 420 Climbing Washington Center
12:59PM 36.6825 -77.1303 214° Southwest 439 505 29,300 480 Climbing Washington Center
01:00PM 36.5811 -77.2111 213° Southwest 439 505 29,800 480 Climbing Washington Center
01:01PM 36.4819 -77.2942 214° Southwest 434 499 30,300 540 Climbing Washington Center
01:02PM 36.3828 -77.3722 212° Southwest 434 499 30,900 600 Climbing Washington Center
01:03PM 36.2728 -77.4625 213° Southwest 434 499 31,500 540 Climbing Washington Center
01:04PM 36.1800 -77.5400 214° Southwest 422 486 32,000 240 Climbing Washington Center
01:05PM 36.0825 -77.6197 213° Southwest 422 486 32,000  Level Washington Center
01:06PM 35.9811 -77.6994 212° Southwest 427 491 32,000  Level Washington Center
01:07PM 35.8753 -77.7811 212° Southwest 433 498 32,000  Level Washington Center
01:08PM 35.7714 -77.8628 213° Southwest 444 511 32,000  Level Washington Center
01:09PM 35.6867 -77.9319 214° Southwest 449 517 32,000  Level Washington Center
01:10PM 35.5744 -78.0206 213° Southwest 449 517 32,000  Level Washington Center
01:11PM 35.4661 -78.1042 212° Southwest 449 517 32,000  Level Washington Center
01:12PM 35.3603 -78.1847 212° Southwest 449 517 32,000  Level Washington Center
01:13PM 35.2539 -78.2678 213° Southwest 455 524 32,000  Level Washington Center
01:14PM 35.1458 -78.3506 212° Southwest 455 524 32,000  Level Washington Center
01:15PM 35.0436 -78.4333 214° Southwest 455 524 32,000 -660 Level Washington Center
01:17PM 34.8250 -78.5961 211° Southwest 451 519 30,200 -1,020 Descending Jacksonville Center
01:18PM 34.7153 -78.6797 212° Southwest 463 533 29,100 -1,140 Descending Jacksonville Center
01:19PM 34.6075 -78.7608 212° Southwest 468 539 28,000 -600 Descending Jacksonville Center
01:20PM 34.5036 -78.8414 213° Southwest 456 525 28,000  Level Jacksonville Center
01:21PM 34.4019 -78.9267 215° Southwest 451 519 28,000 -360 Level Jacksonville Center
01:22PM 34.2961 -79.0044 211° Southwest 451 519 27,300 -900 Descending Jacksonville Center
01:23PM 34.1789 -79.0622 202° Southwest 451 519 26,200 -1,140 Descending Jacksonville Center
01:24PM 34.0533 -79.1206 201° Southwest 461 531 25,100 -1,200 Descending Jacksonville Center
01:25PM 33.9319 -79.1756 201° Southwest 471 542 23,800 -1,860 Descending Jacksonville Center
01:26PM 33.8167 -79.2281 201° Southwest 464 534 21,400 -2,520 Descending Jacksonville Center
01:27PM 33.7039 -79.3000 208° Southwest 447 514 18,800 -2,340 Descending Jacksonville Center
01:28PM 33.6078 -79.3739 213° Southwest 423 487 16,800 -2,160 Descending Jacksonville Center
01:29PM 33.5119 -79.4475 213° Southwest 413 475 14,500 -2,220 Descending Jacksonville Center
01:30PM 33.4197 -79.5133 211° Southwest 407 468 12,400 -1,800 Descending Jacksonville Center
01:31PM 33.3317 -79.5811 213° Southwest 395 455 11,000 -840 Descending Jacksonville Center
01:32PM 33.2436 -79.6467 212° Southwest 383 441 10,800 -540 Descending Jacksonville Center
01:33PM 33.1722 -79.7014 213° Southwest 355 409 10,000 -1,080 Descending Jacksonville Center
01:34PM 33.1067 -79.7508 212° Southwest 316 364 8,700 -1,200 Descending Jacksonville Center
01:35PM 33.0389 -79.8050 214° Southwest 300 345 7,600 -1,140 Descending Jacksonville Center
01:36PM 32.9714 -79.8594 214° Southwest 300 345 6,500 -1,380 Descending Jacksonville Center
01:37PM 32.9100 -79.9061 213° Southwest 289 333 4,900 -1,800 Descending Jacksonville Center
01:38PM 32.8442 -79.9553 212° Southwest 284 327 3,000 -1,380 Descending Jacksonville Center
01:39PM 32.8058 -80.0108 231° Southwest 256 295 2,200 -840 Descending Jacksonville Center